createdAt,value
2019-02-22T00:02:14.384Z,98715.94
2019-02-22T00:04:49.436Z,98720.02
2019-02-22T00:07:24.957Z,98721.92
2019-02-22T00:10:01.136Z,98727.02
2019-02-22T00:12:39.336Z,98727.02
2019-02-22T00:15:13.925Z,98735.55
2019-02-22T00:17:48.131Z,98734.06
2019-02-22T00:20:22.758Z,98734.06
2019-02-22T00:22:56.025Z,98744.36
2019-02-22T00:25:28.811Z,98733.03
2019-02-22T00:28:03.280Z,98748.14
2019-02-22T00:30:37.740Z,98738.48
2019-02-22T00:33:11.990Z,98744.60
2019-02-22T00:35:44.922Z,98743.30
2019-02-22T00:38:19.139Z,98741.42
2019-02-22T00:40:53.753Z,98738.55
2019-02-22T00:43:28.137Z,98732.79
2019-02-22T00:46:02.706Z,98730.88
2019-02-22T00:48:37.116Z,98730.88
2019-02-22T00:51:11.685Z,98735.27
2019-02-22T00:53:46.124Z,98735.27
2019-02-22T00:56:20.711Z,98737.59
2019-02-22T00:58:55.279Z,98737.59
2019-02-22T01:01:29.723Z,98736.22
2019-02-22T01:04:05.291Z,98732.61
2019-02-22T01:06:39.739Z,98736.14
2019-02-22T01:09:14.288Z,98731.30
2019-02-22T01:11:48.727Z,98734.16
2019-02-22T01:14:23.290Z,98726.06
2019-02-22T01:16:57.703Z,98744.14
2019-02-22T01:19:32.146Z,98731.48
2019-02-22T01:22:06.708Z,98735.86
2019-02-22T01:24:41.151Z,98735.86
2019-02-22T01:27:15.682Z,98728.64
2019-02-22T01:29:50.169Z,98728.64
2019-02-22T01:32:24.739Z,98737.95
2019-02-22T01:34:59.297Z,98744.00
2019-02-22T01:37:33.755Z,98747.36
2019-02-22T01:40:08.733Z,98743.65
2019-02-22T01:42:43.300Z,98750.55
2019-02-22T01:45:17.844Z,98750.37
2019-02-22T01:47:50.668Z,98753.38
2019-02-22T01:50:26.355Z,98752.78
2019-02-22T01:53:00.791Z,98756.42
2019-02-22T01:55:34.020Z,98759.50
2019-02-22T01:58:08.151Z,98760.95
2019-02-22T02:00:44.733Z,98757.45
2019-02-22T02:03:19.124Z,98762.44
2019-02-22T02:05:53.763Z,98767.25
2019-02-22T02:08:26.685Z,98767.25
2019-02-22T02:11:01.127Z,98776.56
2019-02-22T02:13:35.428Z,98765.98
2019-02-22T02:16:09.889Z,98765.98
2019-02-22T02:18:42.808Z,98778.55
2019-02-22T02:21:16.961Z,98778.55
2019-02-22T02:23:51.783Z,98776.13
2019-02-22T02:26:26.113Z,98775.28
2019-02-22T02:29:00.355Z,98779.50
2019-02-22T02:31:34.779Z,98779.50
2019-02-22T02:34:09.150Z,98784.67
2019-02-22T02:36:43.655Z,98785.45
2019-02-22T02:39:17.973Z,98790.30
2019-02-22T02:41:52.338Z,98786.22
2019-02-22T02:44:26.720Z,98786.22
2019-02-22T02:47:01.097Z,98785.34
2019-02-22T02:49:35.692Z,98787.42
2019-02-22T02:52:09.958Z,98790.02
2019-02-22T02:54:44.294Z,98795.28
2019-02-22T02:57:18.714Z,98798.89
2019-02-22T02:59:53.128Z,98799.00
2019-02-22T03:02:29.279Z,98799.85
2019-02-22T03:05:03.701Z,98799.85
2019-02-22T03:07:48.582Z,98801.23
2019-02-22T03:10:22.944Z,98806.40
2019-02-22T03:12:56.956Z,98807.17
2019-02-22T03:15:31.368Z,98802.61
2019-02-22T03:18:06.691Z,98811.21
2019-02-22T03:20:40.970Z,98812.09
2019-02-22T03:23:15.304Z,98818.64
2019-02-22T03:25:49.739Z,98818.64
2019-02-22T03:28:24.945Z,98820.80
2019-02-22T03:30:59.277Z,98830.90
2019-02-22T03:33:33.737Z,98833.13
2019-02-22T03:36:08.287Z,98840.81
2019-02-22T03:38:42.667Z,98839.61
2019-02-22T03:41:17.124Z,98839.95
2019-02-22T03:43:51.656Z,98845.80
2019-02-22T03:46:26.957Z,98846.41
2019-02-22T03:49:05.312Z,98848.84
2019-02-22T03:51:37.288Z,98853.23
2019-02-22T03:54:11.637Z,98849.95
2019-02-22T03:56:45.956Z,98854.80
2019-02-22T03:59:20.303Z,98854.94
2019-02-22T04:01:54.706Z,98864.36
2019-02-22T04:04:29.120Z,98868.67
2019-02-22T04:07:03.315Z,98871.87
2019-02-22T04:09:37.725Z,98871.87
2019-02-22T04:12:12.151Z,98861.59
2019-02-22T04:14:46.605Z,98870.59
2019-02-22T04:17:21.138Z,98866.63
2019-02-22T04:19:55.649Z,98881.19
2019-02-22T04:22:29.954Z,98881.19
2019-02-22T04:25:04.288Z,98886.36
2019-02-22T04:27:38.771Z,98882.21
2019-02-22T04:30:13.328Z,98890.95
2019-02-22T04:32:47.676Z,98889.47
2019-02-22T04:35:21.956Z,98889.22
2019-02-22T04:37:56.278Z,98900.09
2019-02-22T04:40:30.693Z,98896.20
2019-02-22T04:43:05.081Z,98900.27
2019-02-22T04:45:39.330Z,98901.48
2019-02-22T04:48:13.711Z,98901.48
2019-02-22T04:50:48.123Z,98898.19
2019-02-22T04:53:22.650Z,98910.20
2019-02-22T04:55:56.944Z,98910.20
2019-02-22T04:58:29.869Z,98917.53
2019-02-22T05:01:03.955Z,98911.75
2019-02-22T05:03:38.294Z,98917.28
2019-02-22T05:06:12.646Z,98921.42
2019-02-22T05:08:47.147Z,98927.91
2019-02-22T05:11:22.638Z,98931.97
2019-02-22T05:13:56.943Z,98931.97
2019-02-22T05:16:31.342Z,98944.83
2019-02-22T05:19:05.699Z,98944.83
2019-02-22T05:21:40.113Z,98942.56
2019-02-22T05:24:15.302Z,98960.03
2019-02-22T05:26:49.710Z,98960.03
2019-02-22T05:29:24.087Z,98958.13
2019-02-22T05:31:58.720Z,98960.53
2019-02-22T05:34:33.109Z,98960.95
2019-02-22T05:37:07.642Z,98967.19
2019-02-22T05:39:42.180Z,98967.19
2019-02-22T05:42:22.866Z,98996.44
2019-02-22T05:44:52.773Z,98996.44
2019-02-22T05:47:27.115Z,98989.71
2019-02-22T05:50:01.327Z,98999.05
2019-02-22T05:52:35.774Z,98999.05
2019-02-22T05:55:10.232Z,99007.77
2019-02-22T05:57:44.750Z,99012.94
2019-02-22T06:00:36.722Z,99010.87
2019-02-22T06:03:27.812Z,99024.77
2019-02-22T06:06:19.951Z,99025.90
2019-02-22T06:09:12.259Z,99029.24
2019-02-22T06:12:04.665Z,99031.23
2019-02-22T06:14:56.948Z,99042.38
2019-02-22T06:17:48.949Z,99047.89
2019-02-22T06:22:08.880Z,99057.56
2019-02-22T06:25:01.352Z,99057.56
2019-02-22T06:27:53.314Z,99071.73
2019-02-22T06:30:45.948Z,99071.73
2019-02-22T06:33:39.274Z,99074.31
2019-02-22T06:36:29.862Z,99083.89
2019-02-22T06:39:22.259Z,99089.39
2019-02-22T06:42:14.755Z,99098.18
2019-02-22T06:45:07.295Z,99106.50
2019-02-22T06:47:59.659Z,99122.02
2019-02-22T06:50:51.946Z,99122.02
2019-02-22T06:53:44.314Z,99127.63
2019-02-22T06:56:36.766Z,99133.80
2019-02-22T06:59:28.735Z,99141.15
2019-02-22T07:02:22.088Z,99144.19
2019-02-22T07:05:14.283Z,99149.11
2019-02-22T07:08:06.661Z,99152.66
2019-02-22T07:11:25.253Z,99158.27
2019-02-22T07:14:17.292Z,99178.06
2019-02-22T07:17:09.335Z,99178.06
2019-02-22T07:22:20.673Z,99188.85
2019-02-22T07:25:13.663Z,99194.14
2019-02-22T07:28:05.750Z,99204.83
2019-02-22T07:30:57.692Z,99203.69
2019-02-22T07:33:50.948Z,99203.69
2019-02-22T07:36:43.271Z,99217.45
2019-02-22T07:39:35.890Z,99215.60
2019-02-22T07:42:27.946Z,99215.60
2019-02-22T07:45:20.875Z,99221.59
2019-02-22T07:48:13.271Z,99221.59
2019-02-22T07:51:05.636Z,99227.30
2019-02-22T07:53:58.275Z,99229.48
2019-02-22T07:56:48.861Z,99246.33
2019-02-22T07:59:41.273Z,99245.91
2019-02-22T08:02:33.283Z,99253.61
2019-02-22T08:05:25.658Z,99258.25
2019-02-22T08:08:18.157Z,99267.84
2019-02-22T08:11:10.324Z,99263.96
2019-02-22T08:14:02.504Z,99269.82
2019-02-22T08:16:55.282Z,99273.08
2019-02-22T08:19:47.637Z,99280.95
2019-02-22T08:22:39.950Z,99288.96
2019-02-22T08:25:31.713Z,99288.96
2019-02-22T08:28:23.930Z,99293.94
2019-02-22T08:31:15.290Z,99303.48
2019-02-22T08:34:07.659Z,99313.33
2019-02-22T08:36:59.884Z,99322.81
2019-02-22T08:39:58.673Z,99328.63
2019-02-22T08:42:45.949Z,99334.94
2019-02-22T08:45:38.056Z,99342.86
2019-02-22T08:48:30.804Z,99348.58
2019-02-22T08:51:23.282Z,99359.59
2019-02-22T08:54:16.276Z,99355.20
2019-02-22T08:57:09.306Z,99364.10
2019-02-22T09:00:01.676Z,99376.53
2019-02-22T09:02:53.983Z,99389.63
2019-02-22T09:05:46.276Z,99389.70
2019-02-22T09:08:39.698Z,99397.52
2019-02-22T09:11:31.782Z,99405.62
2019-02-22T09:14:24.253Z,99405.62
2019-02-22T09:17:16.275Z,99416.05
2019-02-22T09:20:09.280Z,99422.95
2019-02-22T09:23:01.377Z,99423.92
2019-02-22T09:25:53.744Z,99413.87
2019-02-22T09:28:46.251Z,99425.98
2019-02-22T09:31:38.269Z,99437.34
2019-02-22T09:34:30.703Z,99441.73
2019-02-22T09:37:23.070Z,99446.28
2019-02-22T09:40:15.062Z,99459.70
2019-02-22T09:43:06.940Z,99459.70
2019-02-22T09:45:59.339Z,99464.03
2019-02-22T09:48:51.312Z,99473.84
2019-02-22T09:51:43.648Z,99476.38
2019-02-22T09:54:35.741Z,99487.97
2019-02-22T09:57:28.109Z,99487.97
2019-02-22T10:00:18.786Z,99488.19
2019-02-22T10:03:10.947Z,99489.03
2019-02-22T10:06:03.057Z,99487.97
2019-02-22T10:08:55.310Z,99496.09
2019-02-22T10:11:45.695Z,99496.09
2019-02-22T10:14:37.877Z,99499.09
2019-02-22T10:17:29.919Z,99505.17
2019-02-22T10:20:21.926Z,99513.40
2019-02-22T10:23:13.072Z,99522.48
2019-02-22T10:26:05.645Z,99538.38
2019-02-22T10:28:58.206Z,99534.51
2019-02-22T10:31:50.556Z,99551.11
2019-02-22T10:34:43.567Z,99552.08
2019-02-22T10:37:35.169Z,99552.08
2019-02-22T10:40:27.650Z,99571.67
2019-02-22T10:43:19.581Z,99566.09
2019-02-22T10:46:11.864Z,99585.00
2019-02-22T10:49:04.153Z,99585.00
2019-02-22T10:51:54.637Z,99584.38
2019-02-22T10:54:47.109Z,99591.89
2019-02-22T10:57:39.261Z,99594.67
2019-02-22T11:00:30.602Z,99606.70
2019-02-22T11:03:22.621Z,99596.44
2019-02-22T11:06:15.253Z,99604.91
2019-02-22T11:09:08.720Z,99603.61
2019-02-22T11:12:00.269Z,99611.67
2019-02-22T11:14:52.308Z,99612.60
2019-02-22T11:17:44.624Z,99615.08
2019-02-22T11:20:36.938Z,99615.08
2019-02-22T11:23:29.553Z,99617.00
2019-02-22T11:26:21.744Z,99619.95
2019-02-22T11:29:14.295Z,99620.25
2019-02-22T11:32:07.317Z,99625.27
2019-02-22T11:34:58.388Z,99624.83
2019-02-22T11:37:51.278Z,99628.61
2019-02-22T11:40:44.129Z,99641.28
2019-02-22T11:43:36.632Z,99654.83
2019-02-22T11:46:28.686Z,99654.83
2019-02-22T11:49:21.487Z,99658.37
2019-02-22T11:52:13.804Z,99666.66
2019-02-22T11:55:06.718Z,99662.75
2019-02-22T11:57:59.280Z,99666.11
2019-02-22T12:00:51.727Z,99670.59
2019-02-22T12:03:44.310Z,99673.89
2019-02-22T12:06:36.287Z,99674.23
2019-02-22T12:09:29.279Z,99683.99
2019-02-22T12:12:21.127Z,99687.31
2019-02-22T12:15:12.380Z,99691.93
2019-02-22T12:18:04.679Z,99694.83
2019-02-22T12:20:56.886Z,99701.13
2019-02-22T12:23:49.251Z,99701.13
2019-02-22T12:26:41.722Z,99707.95
2019-02-22T12:29:34.153Z,99703.70
2019-02-22T12:32:25.084Z,99716.20
2019-02-22T12:35:18.277Z,99731.00
2019-02-22T12:38:10.738Z,99741.23
2019-02-22T12:41:03.288Z,99741.23
2019-02-22T12:43:56.264Z,99745.24
2019-02-22T12:46:48.276Z,99743.13
2019-02-22T12:49:40.264Z,99747.84
2019-02-22T12:53:27.957Z,99757.72
2019-02-22T12:56:24.333Z,99761.89
2019-02-22T12:59:14.267Z,99765.22
2019-02-22T13:02:06.663Z,99770.75
2019-02-22T13:04:58.741Z,99770.75
2019-02-22T13:07:52.562Z,99778.61
2019-02-22T13:10:45.094Z,99778.61
2019-02-22T13:13:37.951Z,99784.11
2019-02-22T13:16:30.714Z,99778.61
2019-02-22T13:19:23.125Z,99787.45
2019-02-22T13:22:16.120Z,99792.75
2019-02-22T13:25:08.280Z,99783.72
2019-02-22T13:27:58.866Z,99806.34
2019-02-22T13:30:50.644Z,99805.94
2019-02-22T13:33:42.720Z,99819.12
2019-02-22T13:36:35.276Z,99813.60
2019-02-22T13:39:27.679Z,99823.05
2019-02-22T13:42:18.672Z,99823.05
2019-02-22T13:45:11.681Z,99832.84
2019-02-22T13:48:03.750Z,99835.61
2019-02-22T13:50:56.063Z,99851.12
2019-02-22T13:53:48.401Z,99853.06
2019-02-22T13:56:40.345Z,99853.06
2019-02-22T13:59:32.877Z,99860.34
2019-02-22T14:02:25.125Z,99863.66
2019-02-22T14:05:16.277Z,99874.48
2019-02-22T14:08:09.953Z,99877.81
2019-02-22T14:11:02.282Z,99880.75
2019-02-22T14:13:55.270Z,99882.30
2019-02-22T14:16:47.697Z,99894.08
2019-02-22T14:19:39.702Z,99894.08
2019-02-22T14:22:31.895Z,99887.03
2019-02-22T14:25:23.928Z,99888.81
2019-02-22T14:28:15.025Z,99891.36
2019-02-22T14:31:07.289Z,99891.36
2019-02-22T14:33:59.675Z,99896.83
2019-02-22T14:36:51.945Z,99896.83
2019-02-22T14:39:43.271Z,99897.05
2019-02-22T14:42:36.286Z,99902.72
2019-02-22T14:45:26.859Z,99900.73
2019-02-22T14:48:19.319Z,99898.16
2019-02-22T14:51:11.954Z,99907.19
2019-02-22T14:54:03.096Z,99904.95
2019-02-22T14:56:53.864Z,99906.33
2019-02-22T14:59:46.144Z,99904.95
2019-02-22T15:02:37.110Z,99906.56
2019-02-22T15:05:28.953Z,99913.23
2019-02-22T15:08:19.677Z,99922.44
2019-02-22T15:11:11.624Z,99929.26
2019-02-22T15:14:03.954Z,99929.26
2019-02-22T15:17:15.725Z,99940.84
2019-02-22T15:20:09.408Z,99941.84
2019-02-22T15:23:02.596Z,99952.91
2019-02-22T15:25:53.865Z,99955.59
2019-02-22T15:28:46.272Z,99955.39
2019-02-22T15:31:37.643Z,99967.53
2019-02-22T15:34:29.661Z,99975.98
2019-02-22T15:37:21.642Z,99982.05
2019-02-22T15:40:14.384Z,99982.05
2019-02-22T15:43:06.941Z,99986.12
2019-02-22T15:45:59.682Z,99991.68
2019-02-22T15:48:53.413Z,99991.68
2019-02-22T15:51:45.889Z,100001.66
2019-02-22T15:54:38.643Z,100001.66
2019-02-22T15:57:31.278Z,100003.59
2019-02-22T16:00:26.792Z,100005.18
2019-02-22T16:03:19.277Z,100004.97
2019-02-22T16:06:09.894Z,100012.20
2019-02-22T16:09:00.856Z,100016.53
2019-02-22T16:11:54.754Z,100025.34
2019-02-22T16:14:47.075Z,100035.81
2019-02-22T16:17:39.869Z,100042.75
2019-02-22T16:20:31.982Z,100044.10
2019-02-22T16:23:25.529Z,100051.47
2019-02-22T16:26:19.475Z,100051.47
2019-02-22T16:29:12.296Z,100056.80
2019-02-22T16:32:05.499Z,100063.45
2019-02-22T16:34:58.273Z,100063.45
2019-02-22T16:37:48.868Z,100069.07
2019-02-22T16:40:40.790Z,100067.20
2019-02-22T16:43:33.274Z,100064.19
2019-02-22T16:46:34.577Z,100063.81
2019-02-22T16:49:19.941Z,100053.55
2019-02-22T16:52:12.701Z,100055.23
2019-02-22T16:55:04.014Z,100055.23
2019-02-22T16:57:37.415Z,100064.01
2019-02-22T17:00:14.279Z,100073.40
2019-02-22T17:02:48.783Z,100080.56
2019-02-22T17:05:23.106Z,100084.83
2019-02-22T17:07:58.276Z,100097.23
2019-02-22T17:10:32.915Z,100093.36
2019-02-22T17:13:06.146Z,100099.79
2019-02-22T17:15:40.328Z,100098.96
2019-02-22T17:18:14.823Z,100102.95
2019-02-22T17:20:48.042Z,100114.14
2019-02-22T17:23:22.624Z,100110.18
2019-02-22T17:25:57.140Z,100110.55
2019-02-22T17:28:31.642Z,100101.92
2019-02-22T17:31:05.941Z,100101.92
2019-02-22T17:33:38.850Z,100098.14
2019-02-22T17:36:13.294Z,100102.25
2019-02-22T17:38:47.747Z,100101.61
2019-02-22T17:41:22.098Z,100111.90
2019-02-22T17:43:56.667Z,100124.09
2019-02-22T17:46:31.273Z,100124.09
2019-02-22T17:49:05.741Z,100132.86
2019-02-22T17:51:40.066Z,100132.75
2019-02-22T17:54:14.716Z,100137.51
2019-02-22T17:56:49.119Z,100137.51
2019-02-22T17:59:23.674Z,100143.45
2019-02-22T18:01:58.127Z,100149.92
2019-02-22T18:04:32.742Z,100146.23
2019-02-22T18:07:07.140Z,100146.23
2019-02-22T18:09:41.726Z,100159.35
2019-02-22T18:12:16.276Z,100161.61
2019-02-22T18:14:50.745Z,100161.61
2019-02-22T18:17:25.059Z,100164.61
2019-02-22T18:19:59.692Z,100170.88
2019-02-22T18:22:34.248Z,100170.88
2019-02-22T18:25:09.273Z,100167.30
2019-02-22T18:27:43.697Z,100173.07
2019-02-22T18:30:18.145Z,100176.33
2019-02-22T18:32:52.683Z,100183.83
2019-02-22T18:35:27.259Z,100183.83
2019-02-22T18:38:01.710Z,100187.62
2019-02-22T18:40:36.249Z,100191.80
2019-02-22T18:43:10.768Z,100197.00
2019-02-22T18:45:44.939Z,100193.06
2019-02-22T18:48:19.268Z,100183.27
2019-02-22T18:50:53.677Z,100183.27
2019-02-22T18:53:28.274Z,100175.64
2019-02-22T18:56:02.781Z,100175.64
2019-02-22T18:58:35.857Z,100175.34
2019-02-22T19:01:10.114Z,100179.23
2019-02-22T19:03:44.725Z,100183.84
2019-02-22T19:06:19.276Z,100183.19
2019-02-22T19:08:53.725Z,100184.55
2019-02-22T19:11:28.124Z,100175.50
2019-02-22T19:14:02.718Z,100174.70
2019-02-22T19:16:37.062Z,100171.96
2019-02-22T19:19:14.204Z,100192.03
2019-02-22T19:21:48.103Z,100192.03
2019-02-22T19:24:22.717Z,100199.86
2019-02-22T19:26:57.135Z,100199.86
2019-02-22T19:29:31.630Z,100204.38
2019-02-22T19:32:05.945Z,100204.38
2019-02-22T19:34:40.280Z,100204.59
2019-02-22T19:37:15.292Z,100202.66
2019-02-22T19:39:50.138Z,100200.15
2019-02-22T19:42:24.722Z,100207.84
2019-02-22T19:45:03.319Z,100207.84
2019-02-22T19:47:41.875Z,100214.80
2019-02-22T19:50:14.713Z,100228.11
2019-02-22T19:52:47.686Z,100236.53
2019-02-22T19:55:22.285Z,100234.50
2019-02-22T19:57:56.753Z,100237.38
2019-02-22T20:00:31.157Z,100238.30
2019-02-22T20:03:05.717Z,100236.14
2019-02-22T20:05:40.138Z,100231.17
2019-02-22T20:08:14.728Z,100231.17
2019-02-22T20:10:49.273Z,100234.83
2019-02-22T20:13:23.730Z,100235.09
2019-02-22T20:15:58.323Z,100234.08
2019-02-22T20:18:32.945Z,100241.94
2019-02-22T20:21:07.608Z,100241.19
2019-02-22T20:23:42.194Z,100240.89
2019-02-22T20:26:18.949Z,100240.21
2019-02-22T20:28:51.860Z,100240.21
2019-02-22T20:31:26.279Z,100251.37
2019-02-22T20:34:00.703Z,100255.81
2019-02-22T20:36:35.293Z,100263.44
2019-02-22T20:39:09.948Z,100261.60
2019-02-22T20:41:42.871Z,100261.84
2019-02-22T20:44:17.292Z,100267.00
2019-02-22T20:46:51.939Z,100267.84
2019-02-22T20:49:24.873Z,100267.84
2019-02-22T20:51:59.275Z,100271.03
2019-02-22T20:54:34.262Z,100276.48
2019-02-22T20:57:08.696Z,100279.91
2019-02-22T20:59:43.276Z,100286.09
2019-02-22T21:02:17.721Z,100286.09
2019-02-22T21:04:52.146Z,100283.25
2019-02-22T21:07:27.712Z,100282.03
2019-02-22T21:10:03.248Z,100282.03
2019-02-22T21:12:37.707Z,100277.48
2019-02-22T21:15:13.316Z,100280.78
2019-02-22T21:17:48.120Z,100289.58
2019-02-22T21:20:22.648Z,100282.22
2019-02-22T21:22:58.264Z,100282.22
2019-02-22T21:25:32.762Z,100284.75
2019-02-22T21:28:07.251Z,100289.27
2019-02-22T21:30:42.688Z,100297.95
2019-02-22T21:33:17.284Z,100296.72
2019-02-22T21:36:47.093Z,100294.02
2019-02-22T21:39:22.113Z,100301.56
2019-02-22T21:41:56.811Z,100298.37
2019-02-22T21:44:30.101Z,100290.19
2019-02-22T21:47:04.344Z,100288.71
2019-02-22T21:49:38.987Z,100294.17
2019-02-22T21:52:13.707Z,100294.48
2019-02-22T21:54:49.283Z,100294.48
2019-02-22T21:57:24.167Z,100301.64
2019-02-22T21:59:58.715Z,100303.23
2019-02-22T22:02:35.521Z,100295.95
2019-02-22T22:05:10.291Z,100299.71
2019-02-22T22:07:45.284Z,100306.88
2019-02-22T22:10:19.958Z,100310.66
2019-02-22T22:12:52.864Z,100305.20
2019-02-22T22:15:27.117Z,100309.77
2019-02-22T22:18:01.893Z,100301.74
2019-02-22T22:20:41.294Z,100301.74
2019-02-22T22:23:15.834Z,100292.14
2019-02-22T22:25:49.013Z,100300.79
2019-02-22T22:28:22.048Z,100296.92
2019-02-22T22:30:54.872Z,100294.20
2019-02-22T22:33:31.489Z,100285.89
2019-02-22T22:36:06.865Z,100287.38
2019-02-22T22:38:40.331Z,100292.92
2019-02-22T22:41:14.756Z,100293.48
2019-02-22T22:43:49.292Z,100273.14
2019-02-22T22:46:23.914Z,100292.69
2019-02-22T22:48:56.896Z,100292.13
2019-02-22T22:51:31.304Z,100290.44
2019-02-22T22:54:05.866Z,100286.12
2019-02-22T22:56:38.852Z,100290.55
2019-02-22T22:59:13.154Z,100305.80
2019-02-22T23:01:48.294Z,100305.80
2019-02-22T23:04:22.907Z,100312.63
2019-02-22T23:06:55.797Z,100316.95
2019-02-22T23:09:30.303Z,100316.25
2019-02-22T23:12:05.165Z,100321.06
2019-02-22T23:14:39.707Z,100321.06
2019-02-22T23:17:13.174Z,100329.80
2019-02-22T23:19:47.797Z,100336.06
2019-02-22T23:22:24.282Z,100336.06
2019-02-22T23:24:58.958Z,100337.66
2019-02-22T23:27:33.969Z,100337.42
2019-02-22T23:30:09.934Z,100336.16
2019-02-22T23:32:43.030Z,100336.16
2019-02-22T23:35:16.116Z,100336.53
2019-02-22T23:37:50.323Z,100340.72
2019-02-22T23:40:24.887Z,100346.88
2019-02-22T23:42:59.473Z,100349.72
2019-02-22T23:45:34.002Z,100345.63
2019-02-22T23:48:08.344Z,100352.44
2019-02-22T23:50:42.795Z,100356.66
2019-02-22T23:53:15.878Z,100360.29
2019-02-22T23:55:50.214Z,100368.00
2019-02-22T23:58:24.689Z,100361.42
